Time;durP1;ratioP1;P1;durP2;ratioP2;P2;SDS_P1;SDS_P2;PMS_P1;PMS_P2;Temp;Humidity;BMP_temperature;BMP_pressure;BME280_temperature;BME280_humidity;BME280_pressure;Samples;Min_cycle;Max_cycle;Signal;HPM_P1;HPM_P2
2021/05/16 00:00:15;;;;;;;9.00;6.30;;;;;20.50;99048.00;;;;2070493;28;20335;-53
2021/05/16 00:01:16;;;;;;;7.28;5.90;;;;;20.50;99039.00;;;;2073444;28;21178;-54
2021/05/16 00:02:16;;;;;;;7.80;5.73;;;;;20.50;99041.00;;;;2077841;28;20230;-54
2021/05/16 00:03:16;;;;;;;7.47;5.77;;;;;20.50;99038.00;;;;2078714;28;20247;-53
2021/05/16 00:04:17;;;;;;;5.93;5.33;;;;;20.50;99037.00;;;;2078326;28;20214;-54
2021/05/16 00:05:18;;;;;;;8.43;6.03;;;;;20.60;99038.00;;;;2078213;28;20230;-54
2021/05/16 00:06:18;;;;;;;7.00;5.97;;;;;20.50;99039.00;;;;2076891;28;20238;-53
2021/05/16 00:07:18;;;;;;;7.27;5.73;;;;;20.50;99041.00;;;;2078318;28;20214;-53
2021/05/16 00:08:19;;;;;;;7.47;6.17;;;;;20.50;99044.00;;;;2078098;28;20773;-54
2021/05/16 00:09:19;;;;;;;8.10;6.83;;;;;20.50;99031.00;;;;2077141;28;20637;-53
2021/05/16 00:10:20;;;;;;;7.83;5.90;;;;;20.50;99036.00;;;;2076265;28;20606;-53
2021/05/16 00:11:21;;;;;;;7.03;6.00;;;;;20.50;99032.00;;;;2071382;28;20221;-53
2021/05/16 00:12:21;;;;;;;6.53;5.40;;;;;20.50;99029.00;;;;2071744;28;20719;-53
2021/05/16 00:13:21;;;;;;;7.17;5.60;;;;;20.50;99038.00;;;;2071537;28;20211;-54
2021/05/16 00:14:22;;;;;;;7.33;5.20;;;;;20.50;99037.00;;;;2069396;28;20307;-54
2021/05/16 00:15:22;;;;;;;5.70;4.67;;;;;20.50;99033.00;;;;2070047;28;20222;-53
2021/05/16 00:16:23;;;;;;;6.10;5.23;;;;;20.50;99032.00;;;;2069770;28;20218;-53
2021/05/16 00:17:23;;;;;;;7.03;5.50;;;;;20.50;98998.00;;;;2070142;28;20234;-54
2021/05/16 00:18:23;;;;;;;7.20;5.67;;;;;20.50;99033.00;;;;2070324;28;20572;-53
2021/05/16 00:19:24;;;;;;;8.30;5.63;;;;;20.50;99031.00;;;;2069981;28;20215;-53
2021/05/16 00:20:26;;;;;;;6.20;5.60;;;;;20.50;99030.00;;;;2070444;28;20222;-53
2021/05/16 00:21:26;;;;;;;7.18;5.40;;;;;20.50;99027.00;;;;2069834;28;20253;-53
2021/05/16 00:22:27;;;;;;;6.13;5.47;;;;;20.50;99029.00;;;;2070421;28;20210;-53
2021/05/16 00:23:27;;;;;;;8.13;5.40;;;;;20.50;99032.00;;;;2070556;28;20221;-53
2021/05/16 00:24:27;;;;;;;5.20;4.60;;;;;20.50;99027.00;;;;2070531;28;20222;-53
2021/05/16 00:25:28;;;;;;;6.77;4.67;;;;;20.50;99038.00;;;;2070576;28;20243;-54
2021/05/16 00:26:28;;;;;;;7.00;5.37;;;;;20.50;99029.00;;;;2070466;28;20353;-51
2021/05/16 00:27:29;;;;;;;6.60;5.13;;;;;20.50;99030.00;;;;2070577;28;20690;-51
2021/05/16 00:28:29;;;;;;;5.40;4.60;;;;;20.50;99028.00;;;;2070116;28;20229;-51
2021/05/16 00:29:29;;;;;;;5.93;4.67;;;;;20.50;99022.00;;;;2069987;28;20210;-51
2021/05/16 00:30:30;;;;;;;6.03;4.83;;;;;20.50;99020.00;;;;2070578;28;20222;-51
2021/05/16 00:31:30;;;;;;;6.47;4.50;;;;;20.50;99022.00;;;;2069350;28;20304;-51
2021/05/16 00:32:30;;;;;;;5.57;4.30;;;;;20.50;99024.00;;;;2070195;28;20222;-51
2021/05/16 00:33:31;;;;;;;5.17;4.67;;;;;20.50;99020.00;;;;2070611;28;20219;-51
2021/05/16 00:34:31;;;;;;;6.60;5.00;;;;;20.50;99019.00;;;;2070413;28;20210;-51
2021/05/16 00:35:32;;;;;;;5.07;4.57;;;;;20.50;99021.00;;;;2067511;28;20302;-51
2021/05/16 00:36:32;;;;;;;6.30;4.83;;;;;20.50;99026.00;;;;2070474;28;20611;-51
2021/05/16 00:37:32;;;;;;;5.30;4.40;;;;;20.50;99025.00;;;;2070476;28;20238;-51
2021/05/16 00:38:33;;;;;;;7.73;4.50;;;;;20.50;99022.00;;;;2070242;28;20218;-51
2021/05/16 00:39:33;;;;;;;5.93;5.00;;;;;20.50;99031.00;;;;2070290;28;20206;-51
2021/05/16 00:40:35;;;;;;;5.30;4.63;;;;;20.50;99030.00;;;;2070504;28;20210;-51
2021/05/16 00:41:36;;;;;;;6.40;4.70;;;;;20.50;99029.00;;;;2071106;28;20197;-51
2021/05/16 00:42:36;;;;;;;5.60;4.50;;;;;20.50;99029.00;;;;2071800;28;20289;-51
2021/05/16 00:43:36;;;;;;;5.97;4.53;;;;;20.50;99027.00;;;;2071120;28;20678;-51
2021/05/16 00:44:37;;;;;;;4.50;4.03;;;;;20.50;99032.00;;;;2070491;28;20268;-51
2021/05/16 00:45:37;;;;;;;5.23;4.53;;;;;20.50;99024.00;;;;2070532;28;20223;-51
2021/05/16 00:46:37;;;;;;;5.17;4.20;;;;;20.30;99030.00;;;;2070452;28;20222;-51
2021/05/16 00:47:38;;;;;;;5.10;3.60;;;;;20.50;99034.00;;;;2069638;28;20250;-51
2021/05/16 00:48:39;;;;;;;5.67;4.13;;;;;20.40;99026.00;;;;2069745;28;20223;-51
2021/05/16 00:49:39;;;;;;;4.50;4.07;;;;;20.50;99029.00;;;;2069572;28;20242;-51
2021/05/16 00:50:42;;;;;;;5.77;4.83;;;;;20.40;99028.00;;;;2070419;28;20822;-51
2021/05/16 00:51:43;;;;;;;5.60;4.45;;;;;20.50;99020.00;;;;2069861;28;20254;-51
2021/05/16 00:52:43;;;;;;;5.10;4.00;;;;;20.50;99032.00;;;;2070555;28;20242;-51
2021/05/16 00:53:44;;;;;;;5.23;4.10;;;;;20.50;99030.00;;;;2070245;28;20218;-51
2021/05/16 00:54:45;;;;;;;5.27;3.83;;;;;20.50;99025.00;;;;2070649;28;20222;-51
2021/05/16 00:55:46;;;;;;;5.57;4.20;;;;;20.50;99022.00;;;;2069990;28;20331;-51
2021/05/16 00:56:46;;;;;;;4.40;3.70;;;;;20.50;99027.00;;;;2053661;28;20771;-51
2021/05/16 00:57:47;;;;;;;5.30;3.90;;;;;20.50;99033.00;;;;2061323;28;20584;-51
2021/05/16 00:58:47;;;;;;;4.97;3.90;;;;;20.50;99026.00;;;;2069477;28;20719;-51
2021/05/16 00:59:47;;;;;;;5.23;4.10;;;;;20.50;99023.00;;;;2069655;28;20453;-51
2021/05/16 01:00:48;;;;;;;4.47;3.70;;;;;20.50;99027.00;;;;2070164;28;20212;-51
2021/05/16 01:01:50;;;;;;;4.97;3.97;;;;;20.50;99018.00;;;;2069579;28;20218;-51
2021/05/16 01:02:50;;;;;;;4.47;3.75;;;;;20.50;99030.00;;;;2070273;28;20231;-51
2021/05/16 01:03:51;;;;;;;5.20;3.70;;;;;20.50;99027.00;;;;2070443;28;20321;-51
2021/05/16 01:04:51;;;;;;;5.63;4.00;;;;;20.50;99028.00;;;;2070485;28;20241;-51
2021/05/16 01:05:51;;;;;;;4.00;3.53;;;;;20.50;99033.00;;;;2069784;28;20218;-51
2021/05/16 01:06:52;;;;;;;5.13;4.10;;;;;20.50;99033.00;;;;2069820;28;20297;-51
2021/05/16 01:07:52;;;;;;;5.47;3.70;;;;;20.40;99023.00;;;;2069004;28;20214;-51
2021/05/16 01:08:57;;;;;;;5.30;4.20;;;;;20.40;99033.00;;;;2069926;28;20215;-51
2021/05/16 01:09:57;;;;;;;4.30;3.90;;;;;20.50;99028.00;;;;2065799;28;20306;-51
2021/05/16 01:10:58;;;;;;;5.40;3.40;;;;;20.50;99029.00;;;;2068974;28;20222;-51
2021/05/16 01:11:59;;;;;;;4.70;3.63;;;;;20.50;99031.00;;;;2070916;28;20273;-51
2021/05/16 01:13:00;;;;;;;4.32;3.50;;;;;20.50;99029.00;;;;2070991;28;20207;-51
2021/05/16 01:14:05;;;;;;;4.67;3.60;;;;;20.50;99033.00;;;;2070722;28;20223;-51
2021/05/16 01:15:07;;;;;;;6.70;3.60;;;;;20.50;99029.00;;;;2071219;28;20219;-51
2021/05/16 01:16:08;;;;;;;4.90;3.90;;;;;20.40;99031.00;;;;2075715;28;20768;-51
2021/05/16 01:17:08;;;;;;;4.33;3.10;;;;;20.50;99032.00;;;;2080167;28;20224;-51
2021/05/16 01:18:08;;;;;;;4.10;3.23;;;;;20.40;99036.00;;;;2079923;28;20229;-51
2021/05/16 01:19:09;;;;;;;4.50;3.63;;;;;20.50;99034.00;;;;2080039;28;20222;-51
2021/05/16 01:20:12;;;;;;;5.00;3.40;;;;;20.50;99035.00;;;;2079872;28;20210;-51
2021/05/16 01:21:20;;;;;;;4.00;3.60;;;;;20.50;99030.00;;;;2079430;28;20296;-51
2021/05/16 01:22:21;;;;;;;3.80;3.25;;;;;20.50;99031.00;;;;2080139;28;20623;-51
2021/05/16 01:23:28;;;;;;;4.03;3.50;;;;;20.40;99027.00;;;;2079280;28;20244;-51
2021/05/16 01:24:29;;;;;;;4.20;3.10;;;;;20.40;99029.00;;;;2079173;28;20643;-51
2021/05/16 01:25:51;;;;;;;4.20;3.17;;;;;20.40;99033.00;;;;2080069;28;20210;-51
2021/05/16 01:26:51;;;;;;;4.43;3.00;;;;;20.40;99032.00;;;;2079426;28;20782;-51
2021/05/16 01:27:52;;;;;;;4.53;3.27;;;;;20.40;99026.00;;;;2079921;28;20241;-51
2021/05/16 01:28:52;;;;;;;4.03;3.40;;;;;20.40;99035.00;;;;2079947;28;20218;-51
2021/05/16 01:29:53;;;;;;;4.30;3.20;;;;;20.40;99028.00;;;;2073783;28;20293;-51
2021/05/16 01:30:53;;;;;;;3.60;3.00;;;;;20.40;99033.00;;;;2071586;28;20207;-51
2021/05/16 01:31:54;;;;;;;6.47;3.90;;;;;20.40;99035.00;;;;2070651;28;20214;-51
2021/05/16 01:32:54;;;;;;;3.57;2.80;;;;;20.40;99026.00;;;;2071234;28;20214;-51
2021/05/16 01:33:54;;;;;;;4.23;3.13;;;;;20.20;99032.00;;;;2070862;28;20214;-51
2021/05/16 01:34:55;;;;;;;4.40;3.60;;;;;20.40;99037.00;;;;2070446;28;20297;-51
2021/05/16 01:35:55;;;;;;;4.47;3.27;;;;;20.40;99033.00;;;;2075655;28;20674;-51
2021/05/16 01:36:56;;;;;;;5.27;3.13;;;;;20.40;99037.00;;;;2079261;28;20280;-51
2021/05/16 01:37:56;;;;;;;3.90;3.00;;;;;20.40;99036.00;;;;2079997;28;20302;-51
2021/05/16 01:38:57;;;;;;;3.60;2.73;;;;;20.40;99049.00;;;;2079718;28;20228;-51
2021/05/16 01:39:57;;;;;;;5.07;3.97;;;;;20.40;99034.00;;;;2079848;28;20206;-51
2021/05/16 01:40:57;;;;;;;3.53;2.87;;;;;20.50;99039.00;;;;2076043;28;20603;-51
2021/05/16 01:41:58;;;;;;;3.83;3.07;;;;;20.40;99035.00;;;;2072720;28;20579;-51
2021/05/16 01:42:58;;;;;;;4.20;3.00;;;;;20.40;98978.00;;;;2072174;28;20230;-51
2021/05/16 01:43:59;;;;;;;4.57;3.53;;;;;20.40;99034.00;;;;2071723;28;20667;-51
2021/05/16 01:45:04;;;;;;;4.20;3.20;;;;;20.40;99034.00;;;;2070695;28;20207;-54
2021/05/16 01:46:04;;;;;;;3.80;3.20;;;;;20.40;99038.00;;;;2076086;28;20301;-53
2021/05/16 01:47:05;;;;;;;5.33;3.43;;;;;20.50;99047.00;;;;2079707;28;20924;-54
2021/05/16 01:48:06;;;;;;;4.30;3.23;;;;;20.40;99044.00;;;;2079723;28;20461;-53
2021/05/16 01:49:06;;;;;;;3.80;3.13;;;;;20.40;99036.00;;;;2079226;28;20218;-53
2021/05/16 01:50:11;;;;;;;4.33;3.20;;;;;20.50;99034.00;;;;2079513;28;20297;-53
2021/05/16 01:51:12;;;;;;;3.70;2.83;;;;;20.40;99038.00;;;;2079068;28;20210;-53
2021/05/16 01:52:13;;;;;;;4.85;3.35;;;;;20.40;99034.00;;;;2079646;28;20559;-53
2021/05/16 01:53:13;;;;;;;4.30;2.90;;;;;20.40;99034.00;;;;2079632;28;20292;-53
2021/05/16 01:54:13;;;;;;;4.00;2.90;;;;;20.40;99033.00;;;;2079748;28;20564;-53
2021/05/16 01:55:15;;;;;;;4.10;2.90;;;;;20.40;99042.00;;;;2078675;28;20206;-53
2021/05/16 01:56:22;;;;;;;3.83;3.00;;;;;20.40;99035.00;;;;2078855;28;20237;-53
2021/05/16 01:57:23;;;;;;;3.80;2.75;;;;;20.40;99028.00;;;;2079744;28;20279;-53
2021/05/16 01:58:23;;;;;;;4.40;2.80;;;;;20.40;99028.00;;;;2079598;28;20275;-53
2021/05/16 01:59:24;;;;;;;4.50;2.50;;;;;20.40;99037.00;;;;2078494;28;20305;-53
2021/05/16 02:00:28;;;;;;;3.60;2.80;;;;;20.40;99035.00;;;;2070142;28;20229;-53
2021/05/16 02:01:29;;;;;;;5.32;3.03;;;;;20.40;99033.00;;;;2074009;28;20586;-53
2021/05/16 02:02:29;;;;;;;2.65;2.03;;;;;20.40;99035.00;;;;2078986;28;20217;-53
2021/05/16 02:03:30;;;;;;;3.00;2.37;;;;;20.40;99037.00;;;;2078602;28;20205;-53
2021/05/16 02:04:31;;;;;;;3.80;2.90;;;;;20.40;99040.00;;;;2078816;28;20729;-52
2021/05/16 02:05:32;;;;;;;3.38;2.80;;;;;20.40;99034.00;;;;2079720;28;20213;-53
2021/05/16 02:06:32;;;;;;;3.73;2.93;;;;;20.40;99038.00;;;;2079535;28;20336;-53
2021/05/16 02:07:32;;;;;;;2.43;2.20;;;;;20.40;99041.00;;;;2078172;28;20276;-57
2021/05/16 02:08:33;;;;;;;3.60;2.80;;;;;20.40;99040.00;;;;2070677;28;20312;-56
2021/05/16 02:09:33;;;;;;;2.87;2.40;;;;;20.40;99043.00;;;;2078850;28;20276;-54
2021/05/16 02:10:34;;;;;;;4.97;3.10;;;;;20.40;99035.00;;;;2075667;28;20575;-54
2021/05/16 02:11:34;;;;;;;3.10;2.20;;;;;20.40;99039.00;;;;2070284;28;20219;-53
2021/05/16 02:12:34;;;;;;;2.80;2.50;;;;;20.40;99030.00;;;;2062551;28;20215;-53
2021/05/16 02:13:41;;;;;;;5.60;3.07;;;;;20.40;99033.00;;;;2066471;28;20293;-53
2021/05/16 02:14:42;;;;;;;3.17;2.33;;;;;20.40;99037.00;;;;2071225;28;20306;-53
2021/05/16 02:15:43;;;;;;;3.23;2.57;;;;;20.40;99036.00;;;;2071528;28;20222;-53
2021/05/16 02:16:43;;;;;;;4.03;2.50;;;;;20.40;99037.00;;;;2071471;28;20733;-53
2021/05/16 02:17:44;;;;;;;3.80;2.80;;;;;20.40;99038.00;;;;2071041;28;20918;-53
2021/05/16 02:18:44;;;;;;;3.47;2.10;;;;;20.40;99032.00;;;;2071400;28;20657;-53
2021/05/16 02:19:44;;;;;;;3.47;2.50;;;;;20.40;99036.00;;;;2071390;28;20245;-53
2021/05/16 02:20:45;;;;;;;4.50;2.80;;;;;20.40;99039.00;;;;2071284;28;20206;-53
2021/05/16 02:21:45;;;;;;;3.50;2.50;;;;;20.40;99032.00;;;;2070684;28;20322;-53
2021/05/16 02:22:46;;;;;;;3.23;2.50;;;;;20.40;99042.00;;;;2071399;28;20207;-53
2021/05/16 02:23:46;;;;;;;3.17;2.50;;;;;20.40;99030.00;;;;2071497;28;20215;-53
2021/05/16 02:24:46;;;;;;;4.80;2.90;;;;;20.40;99033.00;;;;2071335;28;20579;-53
2021/05/16 02:25:49;;;;;;;4.47;2.80;;;;;20.40;99036.00;;;;2071378;28;20211;-52
2021/05/16 02:26:49;;;;;;;4.15;2.50;;;;;20.40;99027.00;;;;2079351;28;20760;-53
2021/05/16 02:27:50;;;;;;;2.83;2.40;;;;;20.40;99026.00;;;;2079631;28;20209;-53
2021/05/16 02:28:50;;;;;;;3.97;2.80;;;;;20.40;99031.00;;;;2079279;28;20222;-53
2021/05/16 02:29:50;;;;;;;2.93;2.30;;;;;20.40;99026.00;;;;2079631;28;20218;-53
2021/05/16 02:30:51;;;;;;;2.70;2.10;;;;;20.40;99028.00;;;;2079010;28;20217;-53
2021/05/16 02:31:51;;;;;;;3.80;2.60;;;;;20.40;99026.00;;;;2078020;28;20214;-53
2021/05/16 02:32:51;;;;;;;4.13;2.70;;;;;20.40;99026.00;;;;2078565;28;20276;-53
2021/05/16 02:33:52;;;;;;;3.93;2.30;;;;;20.40;99030.00;;;;2079443;28;20256;-53
2021/05/16 02:34:52;;;;;;;3.70;2.07;;;;;20.40;99032.00;;;;2079540;28;20214;-53
2021/05/16 02:35:53;;;;;;;3.53;2.30;;;;;20.40;99025.00;;;;2079598;28;20694;-53
2021/05/16 02:36:53;;;;;;;3.50;2.57;;;;;20.40;99030.00;;;;2079551;28;20669;-53
2021/05/16 02:37:53;;;;;;;3.00;2.10;;;;;20.40;99035.00;;;;2079448;28;20579;-53
2021/05/16 02:38:53;;;;;;;3.13;2.00;;;;;20.40;99032.00;;;;2079369;28;20606;-53
2021/05/16 02:39:54;;;;;;;4.30;2.63;;;;;20.40;99032.00;;;;2079348;28;21262;-53
2021/05/16 02:40:55;;;;;;;2.90;2.43;;;;;20.40;99028.00;;;;2075413;28;20210;-53
2021/05/16 02:41:56;;;;;;;2.78;2.30;;;;;20.40;99033.00;;;;2071846;28;20214;-53
2021/05/16 02:42:56;;;;;;;2.70;2.20;;;;;20.40;99033.00;;;;2074736;28;20211;-53
2021/05/16 02:43:57;;;;;;;4.23;2.37;;;;;20.40;99034.00;;;;2074573;28;21047;-53
2021/05/16 02:44:57;;;;;;;2.83;2.23;;;;;20.40;99035.00;;;;2071290;28;20256;-53
2021/05/16 02:45:57;;;;;;;3.90;2.13;;;;;20.40;99031.00;;;;2070967;28;20223;-53
2021/05/16 02:46:58;;;;;;;4.73;2.00;;;;;20.40;99032.00;;;;2071254;28;20211;-53
2021/05/16 02:47:58;;;;;;;2.57;2.10;;;;;20.40;99027.00;;;;2071147;28;20273;-53
2021/05/16 02:48:59;;;;;;;3.27;2.23;;;;;20.40;99031.00;;;;2071128;28;20831;-53
2021/05/16 02:49:59;;;;;;;3.33;2.10;;;;;20.40;99034.00;;;;2071267;28;20214;-53
2021/05/16 02:51:00;;;;;;;2.60;2.03;;;;;20.40;99025.00;;;;2071112;28;20293;-53
2021/05/16 02:52:00;;;;;;;4.47;2.30;;;;;20.40;99027.00;;;;2070532;28;20667;-53
2021/05/16 02:53:01;;;;;;;3.20;2.10;;;;;20.40;99026.00;;;;2071207;28;20294;-53
2021/05/16 02:54:01;;;;;;;3.20;2.27;;;;;20.40;99034.00;;;;2070249;28;20472;-53
2021/05/16 02:55:03;;;;;;;6.40;2.10;;;;;20.40;99029.00;;;;2071197;28;20214;-53
2021/05/16 02:56:04;;;;;;;3.38;2.15;;;;;20.30;99034.00;;;;2071086;28;20221;-53
2021/05/16 02:57:04;;;;;;;2.30;1.70;;;;;20.40;99033.00;;;;2070826;28;20695;-53
2021/05/16 02:58:05;;;;;;;3.47;2.13;;;;;20.30;99039.00;;;;2071032;28;20246;-53
2021/05/16 02:59:05;;;;;;;3.27;2.10;;;;;20.40;99028.00;;;;2070893;28;20849;-53
2021/05/16 03:00:06;;;;;;;2.97;2.00;;;;;20.30;99031.00;;;;2071208;28;20448;-53
2021/05/16 03:01:06;;;;;;;5.17;1.87;;;;;20.40;99035.00;;;;2071002;28;20215;-53
2021/05/16 03:02:07;;;;;;;2.60;1.77;;;;;20.40;99029.00;;;;2070428;28;20483;-53
2021/05/16 03:03:07;;;;;;;5.50;2.80;;;;;20.30;99027.00;;;;2071158;28;20210;-53
2021/05/16 03:04:07;;;;;;;2.60;1.80;;;;;20.40;99032.00;;;;2071236;28;20233;-53
2021/05/16 03:05:08;;;;;;;2.23;1.70;;;;;20.40;99034.00;;;;2071115;28;20214;-53
2021/05/16 03:06:08;;;;;;;2.33;2.07;;;;;20.40;99035.00;;;;2071200;28;20214;-53
2021/05/16 03:07:09;;;;;;;3.33;2.10;;;;;20.40;99036.00;;;;2071007;28;20264;-53
2021/05/16 03:08:09;;;;;;;2.40;1.90;;;;;20.40;99032.00;;;;2070990;28;20240;-53
2021/05/16 03:09:09;;;;;;;3.57;1.93;;;;;20.40;99030.00;;;;2070198;28;20719;-53
2021/05/16 03:10:10;;;;;;;2.87;1.90;;;;;20.40;99033.00;;;;2070592;28;20691;-53
2021/05/16 03:11:10;;;;;;;2.83;1.90;;;;;20.40;99036.00;;;;2074898;28;20210;-53
2021/05/16 03:12:11;;;;;;;3.00;1.80;;;;;20.40;99035.00;;;;2074611;28;20226;-53
2021/05/16 03:13:11;;;;;;;2.87;1.90;;;;;20.30;99040.00;;;;2065812;28;20223;-55
2021/05/16 03:14:12;;;;;;;3.63;1.80;;;;;20.30;99032.00;;;;2069419;28;20211;-54
2021/05/16 03:15:13;;;;;;;3.40;2.20;;;;;20.40;99033.00;;;;2071048;28;20214;-54
2021/05/16 03:16:13;;;;;;;2.57;1.80;;;;;20.30;99036.00;;;;2071043;28;20230;-53
2021/05/16 03:17:14;;;;;;;4.53;1.90;;;;;20.30;99029.00;;;;2070900;28;20450;-54
2021/05/16 03:18:14;;;;;;;3.47;2.03;;;;;20.30;99027.00;;;;2071011;28;20217;-53
2021/05/16 03:19:14;;;;;;;3.53;2.20;;;;;20.30;99031.00;;;;2078291;28;20664;-53
2021/05/16 03:20:15;;;;;;;3.27;1.90;;;;;20.30;99034.00;;;;2079204;28;20248;-53
2021/05/16 03:21:15;;;;;;;3.90;2.00;;;;;20.30;99037.00;;;;2078263;28;20567;-53
2021/05/16 03:22:15;;;;;;;4.10;2.13;;;;;20.30;99038.00;;;;2079169;28;20214;-53
2021/05/16 03:23:16;;;;;;;2.63;1.63;;;;;20.30;99034.00;;;;2078789;28;20344;-53
2021/05/16 03:24:16;;;;;;;3.07;1.60;;;;;20.30;99040.00;;;;2079207;28;20217;-53
2021/05/16 03:25:17;;;;;;;4.27;1.90;;;;;20.30;99036.00;;;;2079148;28;20253;-53
2021/05/16 03:26:17;;;;;;;1.97;1.67;;;;;20.30;99037.00;;;;2079247;28;20210;-53
2021/05/16 03:27:17;;;;;;;2.70;1.60;;;;;20.30;99029.00;;;;2078894;28;20217;-53
2021/05/16 03:28:18;;;;;;;3.20;1.97;;;;;20.30;99043.00;;;;2078391;28;20222;-53
2021/05/16 03:29:18;;;;;;;4.60;2.33;;;;;20.30;99032.00;;;;2078409;28;20313;-53
2021/05/16 03:30:18;;;;;;;2.63;2.07;;;;;20.30;99033.00;;;;2079183;28;20266;-53
2021/05/16 03:31:19;;;;;;;3.40;1.80;;;;;20.30;99031.00;;;;2077792;28;20218;-53
2021/05/16 03:32:19;;;;;;;3.53;1.90;;;;;20.30;99032.00;;;;2078627;28;20304;-53
2021/05/16 03:33:19;;;;;;;3.10;2.00;;;;;20.30;99033.00;;;;2079114;28;20217;-53
2021/05/16 03:34:20;;;;;;;2.20;1.60;;;;;20.30;99030.00;;;;2079216;28;20214;-54
2021/05/16 03:35:20;;;;;;;2.63;2.00;;;;;20.30;99027.00;;;;2079026;28;20601;-53
2021/05/16 03:36:20;;;;;;;3.50;1.90;;;;;20.30;99031.00;;;;2079026;28;20210;-53
2021/05/16 03:37:21;;;;;;;4.27;1.83;;;;;20.30;99032.00;;;;2078345;28;20217;-53
2021/05/16 03:38:21;;;;;;;2.57;1.83;;;;;20.30;99028.00;;;;2078630;28;20723;-53
2021/05/16 03:39:22;;;;;;;2.43;1.87;;;;;20.30;99031.00;;;;2078874;28;20218;-53
2021/05/16 03:40:22;;;;;;;2.93;1.57;;;;;20.30;99030.00;;;;2078023;28;20229;-53
2021/05/16 03:41:22;;;;;;;4.13;2.00;;;;;20.30;99039.00;;;;2071010;28;20261;-53
2021/05/16 03:42:23;;;;;;;2.73;2.00;;;;;20.30;99038.00;;;;2073785;28;20215;-53
2021/05/16 03:43:23;;;;;;;3.07;1.70;;;;;20.30;99030.00;;;;2073346;28;20218;-53
2021/05/16 03:44:24;;;;;;;2.80;1.60;;;;;20.30;99028.00;;;;2070993;28;20217;-53
2021/05/16 03:45:24;;;;;;;3.13;1.90;;;;;20.30;99029.00;;;;2069754;28;20211;-53
2021/05/16 03:46:24;;;;;;;2.80;1.90;;;;;20.30;99031.00;;;;2070181;28;20446;-53
2021/05/16 03:47:25;;;;;;;2.47;1.60;;;;;20.30;99028.00;;;;2070523;28;20238;-53
2021/05/16 03:48:25;;;;;;;2.50;1.77;;;;;20.30;99032.00;;;;2070709;28;20252;-53
2021/05/16 03:49:25;;;;;;;3.40;2.00;;;;;20.30;99030.00;;;;2070830;28;21032;-53
2021/05/16 03:50:26;;;;;;;3.50;1.47;;;;;20.30;99039.00;;;;2070859;28;20585;-53
2021/05/16 03:51:26;;;;;;;3.10;1.60;;;;;20.30;99039.00;;;;2069852;28;20622;-53
2021/05/16 03:52:27;;;;;;;2.40;1.50;;;;;20.30;99039.00;;;;2070501;28;20713;-53
2021/05/16 03:53:27;;;;;;;2.77;1.80;;;;;20.30;99042.00;;;;2070703;28;20215;-53
2021/05/16 03:54:27;;;;;;;3.40;1.67;;;;;20.30;99035.00;;;;2070387;28;20210;-53
2021/05/16 03:55:28;;;;;;;2.10;1.63;;;;;20.30;99035.00;;;;2070375;28;20214;-53
2021/05/16 03:56:28;;;;;;;1.87;1.50;;;;;20.30;99047.00;;;;2070712;28;20199;-53
2021/05/16 03:57:28;;;;;;;2.60;1.60;;;;;20.30;99042.00;;;;2070662;28;20214;-53
2021/05/16 03:58:29;;;;;;;3.40;1.70;;;;;20.30;99038.00;;;;2070585;28;20215;-53
2021/05/16 03:59:29;;;;;;;2.40;1.90;;;;;20.30;99049.00;;;;2070114;28;20203;-53
2021/05/16 04:00:29;;;;;;;2.80;1.67;;;;;20.30;99040.00;;;;2070851;28;20567;-53
2021/05/16 04:01:30;;;;;;;3.00;1.63;;;;;20.30;99040.00;;;;2069832;28;20614;-53
2021/05/16 04:02:31;;;;;;;2.77;1.50;;;;;20.30;99048.00;;;;2070721;28;20318;-53
2021/05/16 04:03:31;;;;;;;3.73;1.77;;;;;20.30;99048.00;;;;2070631;28;20450;-53
2021/05/16 04:04:31;;;;;;;3.83;1.60;;;;;20.30;99055.00;;;;2070825;28;20242;-53
2021/05/16 04:05:32;;;;;;;2.53;1.50;;;;;20.30;99043.00;;;;2070779;28;20222;-53
2021/05/16 04:06:32;;;;;;;2.00;1.37;;;;;20.30;99049.00;;;;2069794;28;20215;-53
2021/05/16 04:07:32;;;;;;;1.80;1.33;;;;;20.30;99043.00;;;;2070439;28;20371;-53
2021/05/16 04:08:33;;;;;;;2.90;1.57;;;;;20.30;99058.00;;;;2070602;28;20306;-53
2021/05/16 04:09:33;;;;;;;3.13;1.60;;;;;20.30;99051.00;;;;2070515;28;20223;-53
2021/05/16 04:10:33;;;;;;;3.87;1.97;;;;;20.30;99054.00;;;;2070708;28;20221;-53
2021/05/16 04:11:34;;;;;;;3.43;1.67;;;;;20.30;99053.00;;;;2071999;28;20221;-53
2021/05/16 04:12:34;;;;;;;3.17;1.40;;;;;20.30;99042.00;;;;2072657;28;20210;-53
2021/05/16 04:13:34;;;;;;;2.70;1.60;;;;;20.30;99039.00;;;;2067254;28;20207;-53
2021/05/16 04:14:35;;;;;;;3.37;1.67;;;;;20.30;99055.00;;;;2069599;28;20293;-53
2021/05/16 04:15:35;;;;;;;2.67;1.53;;;;;20.30;99054.00;;;;2070348;28;20215;-53
2021/05/16 04:16:35;;;;;;;2.33;1.70;;;;;20.30;99052.00;;;;2070774;28;21008;-53
2021/05/16 04:17:36;;;;;;;3.80;1.80;;;;;20.30;99056.00;;;;2070543;28;20214;-53
2021/05/16 04:18:38;;;;;;;2.33;1.43;;;;;20.30;99048.00;;;;2070526;28;20276;-53
2021/05/16 04:19:38;;;;;;;2.15;1.55;;;;;20.30;99059.00;;;;2070437;28;20218;-53
2021/05/16 04:20:38;;;;;;;2.60;1.47;;;;;20.30;99054.00;;;;2070681;28;20309;-53
2021/05/16 04:21:39;;;;;;;3.10;1.70;;;;;20.30;99064.00;;;;2069074;28;20746;-53
2021/05/16 04:22:39;;;;;;;2.40;1.30;;;;;20.30;99054.00;;;;2070004;28;20219;-53
2021/05/16 04:23:40;;;;;;;2.23;1.30;;;;;20.30;99059.00;;;;2070593;28;20261;-53
2021/05/16 04:24:40;;;;;;;5.00;1.97;;;;;20.30;99061.00;;;;2070319;28;20210;-52
2021/05/16 04:25:40;;;;;;;2.97;1.57;;;;;20.30;99061.00;;;;2070503;28;20210;-53
2021/05/16 04:26:41;;;;;;;3.93;1.83;;;;;20.30;99058.00;;;;2070575;28;20218;-53
2021/05/16 04:27:41;;;;;;;2.80;1.90;;;;;20.30;99058.00;;;;2070444;28;20253;-53
2021/05/16 04:28:41;;;;;;;3.63;1.60;;;;;20.30;99062.00;;;;2069794;28;20225;-53
2021/05/16 04:29:43;;;;;;;2.43;1.30;;;;;20.30;99061.00;;;;2069596;28;20218;-53
2021/05/16 04:30:43;;;;;;;2.35;1.30;;;;;20.30;99061.00;;;;2070605;28;20705;-53
2021/05/16 04:31:44;;;;;;;4.00;1.43;;;;;20.30;99065.00;;;;2070222;28;20218;-53
2021/05/16 04:32:44;;;;;;;2.30;1.43;;;;;20.30;99066.00;;;;2070373;28;20246;-53
2021/05/16 04:33:44;;;;;;;2.60;1.50;;;;;20.30;99068.00;;;;2070683;28;20463;-53
2021/05/16 04:34:45;;;;;;;5.13;1.63;;;;;20.30;99068.00;;;;2070557;28;20261;-53
2021/05/16 04:35:45;;;;;;;2.50;1.37;;;;;20.30;99071.00;;;;2070330;28;20225;-53
2021/05/16 04:36:45;;;;;;;2.73;1.80;;;;;20.30;99070.00;;;;2070689;28;20218;-53
2021/05/16 04:37:46;;;;;;;2.80;1.57;;;;;20.30;99069.00;;;;2070422;28;20219;-53
2021/05/16 04:38:48;;;;;;;2.87;1.50;;;;;20.30;99072.00;;;;2069996;28;20269;-53
2021/05/16 04:39:48;;;;;;;2.00;1.20;;;;;20.30;99073.00;;;;2070582;28;20218;-53
2021/05/16 04:40:48;;;;;;;3.30;1.87;;;;;20.30;99060.00;;;;2070650;28;20218;-53
2021/05/16 04:41:49;;;;;;;2.57;1.30;;;;;20.30;99060.00;;;;2071893;28;20268;-53
2021/05/16 04:42:49;;;;;;;2.00;1.30;;;;;20.30;99068.00;;;;2072556;28;20294;-53
2021/05/16 04:43:49;;;;;;;2.50;1.43;;;;;20.30;99058.00;;;;2072229;28;20214;-53
2021/05/16 04:44:50;;;;;;;2.43;1.30;;;;;20.30;99057.00;;;;2070471;28;20207;-53
2021/05/16 04:45:50;;;;;;;2.30;1.33;;;;;20.30;99058.00;;;;2070592;28;20293;-53
2021/05/16 04:46:50;;;;;;;1.87;1.13;;;;;20.30;99058.00;;;;2070341;28;20713;-53
2021/05/16 04:47:51;;;;;;;3.00;1.70;;;;;20.30;99065.00;;;;2070265;28;20305;-53
2021/05/16 04:48:51;;;;;;;2.07;1.20;;;;;20.30;99059.00;;;;2070603;28;20269;-53
2021/05/16 04:49:51;;;;;;;1.67;1.30;;;;;20.30;99062.00;;;;2071628;28;20209;-53
2021/05/16 04:50:52;;;;;;;3.03;1.53;;;;;20.30;99063.00;;;;2072161;28;20210;-53
2021/05/16 04:51:52;;;;;;;3.37;1.60;;;;;20.30;99059.00;;;;2071165;28;20683;-53
2021/05/16 04:52:53;;;;;;;2.60;1.30;;;;;20.30;99067.00;;;;2072182;28;20615;-53
2021/05/16 04:53:53;;;;;;;1.97;1.30;;;;;20.30;99073.00;;;;2072065;28;20571;-53
2021/05/16 04:54:53;;;;;;;2.53;1.47;;;;;20.30;99065.00;;;;2070305;28;20610;-53
2021/05/16 04:55:54;;;;;;;2.90;1.50;;;;;20.30;99064.00;;;;2079136;28;20217;-53
2021/05/16 04:56:54;;;;;;;2.03;1.57;;;;;20.30;99064.00;;;;2080284;28;20234;-53
2021/05/16 04:57:54;;;;;;;2.60;1.33;;;;;20.30;99071.00;;;;2080286;28;20748;-53
2021/05/16 04:58:55;;;;;;;2.37;1.20;;;;;20.30;99073.00;;;;2080340;28;20221;-53
2021/05/16 04:59:56;;;;;;;1.67;1.10;;;;;20.30;99069.00;;;;2080189;28;20232;-53
2021/05/16 05:00:57;;;;;;;2.75;1.65;;;;;20.30;99070.00;;;;2080562;28;20213;-53
2021/05/16 05:01:58;;;;;;;1.87;1.13;;;;;20.30;99068.00;;;;2078831;28;20210;-56
2021/05/16 05:02:59;;;;;;;2.55;1.40;;;;;20.30;99067.00;;;;2080309;28;20229;-53
2021/05/16 05:03:59;;;;;;;4.20;1.47;;;;;20.30;99068.00;;;;2080252;28;20214;-53